Zimmerdale, Kansas
Current Conditions -  °F | °C
As of 12:55 PM on Sunday 23 Nov 2014 (Local Time) from KEWK Reporting Station
Overcast Overcast  
Wind Chill: 54°   Ceiling: 2200
Heat Index: 54°   Visibility: 10mi
Dew Point: 46°   Wind: 23mph
Humidity: 77%   Direction: 340°NNW
Pressure: 29.41"   Gusts: 35mph
Location:  38.0076°N, 97.2953°W
Report Text: KEWK 231855Z AUTO 34020G30KT 10SM SCT014 BKN022 OVC055 12/08 A2941 RMK AO1
Loading
Personal Weather Stations






























Interactive Weather Map New forecast layout! Learn more

10-Day Weather Forecast

Advertisements
Track Severe Weather on mobile